Time;durP1;ratioP1;P1;durP2;ratioP2;P2;SDS_P1;SDS_P2;PMS_P1;PMS_P2;Temp;Humidity;BMP_temperature;BMP_pressure;BME280_temperature;BME280_humidity;BME280_pressure;Samples;Min_cycle;Max_cycle;Signal;HPM_P1;HPM_P2
2021/05/21 00:01:34;;;;;;;1.63;0.70;;;;;;;12.13;85.67;98410.50;5078205;27;45471;-82
2021/05/21 00:04:00;;;;;;;2.85;0.80;;;;;;;12.21;84.35;98401.66;5079452;27;46518;-82
2021/05/21 00:06:26;;;;;;;1.05;0.70;;;;;;;12.25;84.11;98411.84;5079814;27;45335;-83
2021/05/21 00:08:51;;;;;;;2.13;0.90;;;;;;;12.26;84.44;98407.34;5092084;27;45524;-82
2021/05/21 00:11:17;;;;;;;4.07;1.08;;;;;;;12.09;83.43;98409.97;5079215;27;45264;-82
2021/05/21 00:13:42;;;;;;;2.78;1.00;;;;;;;12.00;83.85;98418.09;5090106;27;45396;-83
2021/05/21 00:16:08;;;;;;;1.30;0.60;;;;;;;11.95;85.33;98415.88;5098722;27;45266;-82
2021/05/21 00:18:33;;;;;;;2.95;0.75;;;;;;;11.95;84.13;98415.88;5092379;27;45227;-82
2021/05/21 00:20:59;;;;;;;1.75;0.63;;;;;;;11.90;84.45;98412.88;5078748;27;45241;-82
2021/05/21 00:23:24;;;;;;;1.30;0.80;;;;;;;12.03;82.08;98401.81;5078942;27;45991;-82
2021/05/21 00:25:50;;;;;;;1.10;0.70;;;;;;;11.85;83.08;98412.53;5078956;27;45266;-83
2021/05/21 00:28:15;;;;;;;1.85;0.70;;;;;;;11.87;83.17;98403.34;5079214;27;45456;-83
2021/05/21 00:30:41;;;;;;;3.65;1.10;;;;;;;11.81;84.95;98401.34;5079008;27;45441;-83
2021/05/21 00:33:06;;;;;;;2.45;0.60;;;;;;;11.81;86.61;98401.34;5096526;27;45409;-83
2021/05/21 00:35:32;;;;;;;4.00;0.90;;;;;;;11.92;85.06;98402.88;5084255;27;45288;-83
2021/05/21 00:37:57;;;;;;;1.60;0.70;;;;;;;11.97;84.56;98390.75;5079200;27;45417;-84
2021/05/21 00:40:23;;;;;;;1.52;0.60;;;;;;;11.78;84.92;98389.19;5078773;27;45510;-84
2021/05/21 00:42:49;;;;;;;1.73;0.65;;;;;;;11.79;84.59;98390.00;5094633;27;45426;-84
2021/05/21 00:45:14;;;;;;;3.08;0.80;;;;;;;11.95;83.26;98379.44;5099108;27;45393;-83
2021/05/21 00:47:41;;;;;;;2.22;0.80;;;;;;;11.86;83.88;98364.38;5084786;27;45325;-83
2021/05/21 00:50:07;;;;;;;3.35;0.70;;;;;;;11.90;82.07;98372.91;5078469;27;45600;-84
2021/05/21 00:52:35;;;;;;;2.22;0.52;;;;;;;12.04;81.73;98379.47;5085506;27;45614;-83
2021/05/21 00:55:01;;;;;;;3.35;0.80;;;;;;;12.08;83.30;98368.31;5083726;27;45272;-83
2021/05/21 00:57:27;;;;;;;5.90;0.75;;;;;;;12.04;80.68;98369.63;5078877;28;45270;-83
2021/05/21 00:59:54;;;;;;;3.25;0.90;;;;;;;12.29;80.81;98358.19;5078563;27;45180;-83
2021/05/21 01:02:19;;;;;;;1.85;0.77;;;;;;;12.17;87.20;98352.34;5078505;27;46623;-82
2021/05/21 01:04:45;;;;;;;3.78;0.80;;;;;;;12.07;86.64;98353.31;5078178;27;45362;-82
2021/05/21 01:07:10;;;;;;;1.65;0.60;;;;;;;12.31;85.22;98358.88;5085753;27;45431;-82
2021/05/21 01:09:36;;;;;;;3.30;1.00;;;;;;;12.32;86.39;98353.34;5084267;27;45515;-82
2021/05/21 01:12:02;;;;;;;3.40;1.30;;;;;;;12.37;85.81;98360.88;5078346;27;45374;-83
2021/05/21 01:14:28;;;;;;;3.45;1.30;;;;;;;12.27;84.99;98361.03;5079110;27;45392;-83
2021/05/21 01:16:53;;;;;;;3.42;1.10;;;;;;;12.26;87.43;98362.88;5078580;27;45294;-83
2021/05/21 01:19:19;;;;;;;1.90;1.10;;;;;;;12.29;87.13;98359.03;5078226;27;45486;-82
2021/05/21 01:21:45;;;;;;;3.47;1.10;;;;;;;12.26;86.16;98349.53;5078000;27;45275;-82
2021/05/21 01:24:11;;;;;;;0.95;0.70;;;;;;;12.12;86.09;98339.53;5077969;27;45222;-82
2021/05/21 01:26:37;;;;;;;1.70;1.10;;;;;;;12.24;89.14;98340.03;5076997;28;45447;-82
2021/05/21 01:29:06;;;;;;;2.05;1.02;;;;;;;12.26;89.22;98346.03;5078088;28;45373;-82
2021/05/21 01:31:32;;;;;;;2.83;0.90;;;;;;;12.25;89.88;98350.53;5082375;27;45271;-82
2021/05/21 01:33:58;;;;;;;4.05;2.05;;;;;;;11.91;88.95;98362.06;5095195;27;45564;-82
2021/05/21 01:36:23;;;;;;;4.03;1.90;;;;;;;11.87;88.82;98381.22;5089955;27;45281;-83
2021/05/21 01:39:09;;;;;;;1.98;1.20;;;;;;;11.58;89.09;98387.75;5077961;27;45449;-82
2021/05/21 01:41:36;;;;;;;3.08;1.10;;;;;;;11.67;86.01;98389.47;5085823;27;47494;-83
2021/05/21 01:44:04;;;;;;;1.58;1.10;;;;;;;11.73;85.89;98380.00;5081586;27;45215;-82
2021/05/21 01:46:30;;;;;;;2.30;1.10;;;;;;;11.89;86.04;98360.56;5079964;27;45416;-83
2021/05/21 01:48:55;;;;;;;2.17;0.90;;;;;;;11.89;85.33;98353.41;5079875;27;45406;-83
2021/05/21 01:51:21;;;;;;;4.03;0.90;;;;;;;11.95;84.26;98366.09;5077532;28;46427;-83
2021/05/21 01:53:46;;;;;;;3.70;0.90;;;;;;;12.00;80.68;98356.78;5077545;27;45423;-83
2021/05/21 01:56:12;;;;;;;2.33;0.90;;;;;;;12.08;80.76;98367.50;5077887;27;45464;-82
2021/05/21 01:58:37;;;;;;;3.47;1.10;;;;;;;12.13;81.97;98375.00;5077663;27;45515;-82
2021/05/21 02:01:03;;;;;;;4.45;0.90;;;;;;;12.14;83.13;98369.50;5077655;27;45292;-82
2021/05/21 02:03:30;;;;;;;1.23;0.77;;;;;;;12.22;82.55;98374.84;5077577;27;45270;-82
2021/05/21 02:05:57;;;;;;;3.03;0.95;;;;;;;12.04;86.64;98372.31;5087845;27;45540;-82
2021/05/21 02:08:26;;;;;;;3.67;1.15;;;;;;;11.88;88.28;98367.72;5081001;27;45231;-82
2021/05/21 02:10:53;;;;;;;2.67;1.00;;;;;;;12.06;87.08;98369.50;5081153;27;46395;-82
2021/05/21 02:13:19;;;;;;;2.90;0.98;;;;;;;12.18;86.08;98362.00;5081046;27;45240;-82
2021/05/21 02:15:45;;;;;;;2.25;0.80;;;;;;;12.17;87.28;98361.19;5081304;28;45214;-83
2021/05/21 02:18:11;;;;;;;2.65;0.98;;;;;;;12.32;88.54;98360.53;5080903;27;45279;-82
2021/05/21 02:20:38;;;;;;;4.88;1.00;;;;;;;12.30;91.05;98347.34;5080803;27;45329;-82
2021/05/21 02:23:04;;;;;;;2.10;0.88;;;;;;;12.34;89.23;98347.88;5081883;27;45465;-82
2021/05/21 02:25:30;;;;;;;2.65;1.10;;;;;;;12.24;87.68;98335.53;5100134;27;45465;-83
2021/05/21 02:27:57;;;;;;;3.63;1.20;;;;;;;12.24;85.17;98335.53;5096854;27;45476;-83
2021/05/21 02:30:22;;;;;;;2.10;1.20;;;;;;;12.25;87.83;98326.53;5095114;27;45306;-83
2021/05/21 02:32:48;;;;;;;1.90;1.30;;;;;;;12.02;87.12;98318.34;5099703;27;45266;-83
2021/05/21 02:35:14;;;;;;;2.88;1.17;;;;;;;12.04;90.03;98302.19;5090112;27;45209;-83
2021/05/21 02:37:40;;;;;;;2.38;1.05;;;;;;;12.16;88.73;98316.88;5080742;27;45268;-83
2021/05/21 02:40:08;;;;;;;3.90;1.05;;;;;;;12.24;88.68;98308.03;5079255;27;46982;-83
2021/05/21 02:42:34;;;;;;;3.65;1.20;;;;;;;12.05;87.44;98299.34;5097735;27;45542;-83
2021/05/21 02:44:59;;;;;;;2.25;1.20;;;;;;;11.79;88.98;98286.09;5089604;27;45405;-83
2021/05/21 02:47:25;;;;;;;1.63;0.93;;;;;;;11.86;85.25;98273.78;5085335;27;45469;-83
2021/05/21 02:49:50;;;;;;;1.60;0.90;;;;;;;11.81;87.53;98281.44;5090262;27;46192;-83
2021/05/21 02:52:17;;;;;;;2.85;1.00;;;;;;;11.97;88.67;98283.31;5095763;27;45435;-83
2021/05/21 02:54:42;;;;;;;2.50;1.00;;;;;;;11.83;86.78;98292.75;5080295;27;45335;-83
2021/05/21 02:57:08;;;;;;;3.83;0.90;;;;;;;11.87;86.34;98296.78;5079315;27;45455;-83
2021/05/21 02:59:33;;;;;;;2.38;1.00;;;;;;;12.06;85.19;98309.00;5080399;27;45279;-83
2021/05/21 03:01:58;;;;;;;2.25;0.82;;;;;;;12.10;85.41;98293.53;5080229;27;45254;-84
2021/05/21 03:04:24;;;;;;;2.78;0.88;;;;;;;12.15;84.01;98291.22;5080531;27;45434;-84
2021/05/21 03:06:49;;;;;;;1.88;1.10;;;;;;;12.10;83.34;98290.88;5083205;27;45550;-84
2021/05/21 03:09:16;;;;;;;3.40;1.00;;;;;;;12.23;84.98;98291.22;5099890;27;45202;-84
2021/05/21 03:11:42;;;;;;;2.03;0.80;;;;;;;12.24;86.40;98295.53;5087579;27;45446;-84
2021/05/21 03:14:07;;;;;;;2.20;1.10;;;;;;;12.28;86.92;98295.22;5079186;27;45335;-84
2021/05/21 03:16:32;;;;;;;1.85;1.10;;;;;;;12.19;88.56;98299.69;5080157;27;45342;-84
2021/05/21 03:18:58;;;;;;;2.35;0.93;;;;;;;12.18;87.70;98303.34;5079088;27;45567;-84
2021/05/21 03:21:23;;;;;;;3.03;1.33;;;;;;;12.08;87.36;98315.00;5088617;27;45468;-83
2021/05/21 03:23:49;;;;;;;4.00;1.23;;;;;;;12.05;89.58;98322.50;5099857;27;45340;-83
2021/05/21 03:26:14;;;;;;;5.15;1.60;;;;;;;11.65;89.04;98322.22;5087069;27;45716;-83
2021/05/21 03:28:40;;;;;;;2.25;1.60;;;;;;;11.56;91.18;98313.34;5079670;27;45964;-83
2021/05/21 03:31:08;;;;;;;2.00;1.20;;;;;;;11.57;91.46;98309.69;5080728;27;45393;-83
2021/05/21 03:33:33;;;;;;;2.78;1.35;;;;;;;11.63;90.89;98301.03;5087018;27;45339;-82
2021/05/21 03:35:58;;;;;;;2.80;1.27;;;;;;;11.56;90.68;98300.03;5086512;27;45501;-83
2021/05/21 03:38:24;;;;;;;2.45;0.98;;;;;;;11.51;90.56;98295.19;5086744;27;45315;-83
2021/05/21 03:40:50;;;;;;;2.60;1.00;;;;;;;11.51;89.86;98289.88;5089713;27;45185;-83
2021/05/21 03:43:15;;;;;;;3.70;1.20;;;;;;;11.47;90.46;98288.50;5078406;28;45298;-83
2021/05/21 03:45:41;;;;;;;2.65;1.02;;;;;;;11.44;88.34;98288.00;5080703;27;45530;-83
2021/05/21 03:48:07;;;;;;;4.95;1.13;;;;;;;11.46;86.11;98276.19;5079654;27;45307;-83
2021/05/21 03:50:33;;;;;;;3.50;1.17;;;;;;;11.53;88.52;98271.06;5079577;27;45490;-82
2021/05/21 03:52:58;;;;;;;4.85;1.30;;;;;;;11.53;88.22;98265.72;5079770;27;45294;-83
2021/05/21 03:55:24;;;;;;;3.33;1.10;;;;;;;11.38;88.35;98252.19;5079428;27;45394;-83
2021/05/21 03:57:50;;;;;;;4.45;1.10;;;;;;;11.38;88.74;98257.50;5079537;27;46046;-83
2021/05/21 04:00:18;;;;;;;3.30;1.20;;;;;;;11.57;88.09;98260.94;5079487;27;45429;-83
2021/05/21 04:02:45;;;;;;;3.55;1.02;;;;;;;11.36;90.46;98262.16;5078363;28;45239;-83
2021/05/21 04:05:11;;;;;;;2.03;1.10;;;;;;;11.41;88.53;98248.38;5079031;27;45565;-83
2021/05/21 04:07:37;;;;;;;2.45;0.80;;;;;;;11.37;84.88;98248.69;5085946;27;45858;-83
2021/05/21 04:10:03;;;;;;;2.05;1.00;;;;;;;11.46;86.30;98246.06;5086714;27;45436;-83
2021/05/21 04:12:29;;;;;;;2.05;0.80;;;;;;;11.64;81.54;98233.47;5079408;27;45458;-83
2021/05/21 04:14:55;;;;;;;3.72;1.00;;;;;;;11.78;81.95;98224.00;5080134;27;45577;-83
2021/05/21 04:17:21;;;;;;;1.40;0.80;;;;;;;11.70;84.23;98228.47;5085979;27;45531;-83
2021/05/21 04:19:47;;;;;;;1.55;0.90;;;;;;;11.93;80.02;98229.53;5085776;27;45346;-84
2021/05/21 04:22:13;;;;;;;1.92;0.80;;;;;;;12.00;82.75;98239.53;5085219;27;45325;-82
2021/05/21 04:24:39;;;;;;;2.17;1.30;;;;;;;12.01;87.33;98246.56;5098341;27;45499;-82
2021/05/21 04:27:06;;;;;;;4.22;1.95;;;;;;;11.87;88.19;98248.81;5098966;27;45465;-82
2021/05/21 04:29:31;;;;;;;8.35;1.92;;;;;;;11.57;89.58;98256.41;5085602;27;45218;-83
2021/05/21 04:31:57;;;;;;;3.20;1.45;;;;;;;11.49;89.53;98251.06;5087283;27;45297;-82
2021/05/21 04:34:22;;;;;;;4.32;1.60;;;;;;;11.70;87.65;98252.44;5085485;27;45214;-83
2021/05/21 04:36:48;;;;;;;3.22;1.40;;;;;;;11.44;88.63;98259.53;5078763;27;45273;-83
2021/05/21 04:39:13;;;;;;;3.10;1.40;;;;;;;11.68;87.96;98258.78;5078591;27;45400;-82
2021/05/21 04:41:39;;;;;;;4.30;1.40;;;;;;;11.64;87.47;98261.94;5081583;27;45293;-83
2021/05/21 04:44:04;;;;;;;4.07;1.30;;;;;;;11.61;88.27;98257.75;5079168;27;45431;-82
2021/05/21 04:46:30;;;;;;;2.58;1.15;;;;;;;11.63;89.96;98254.94;5081539;27;46424;-82
2021/05/21 04:48:55;;;;;;;4.72;1.55;;;;;;;11.46;90.61;98251.38;5087707;27;45464;-82
2021/05/21 04:51:20;;;;;;;2.17;1.00;;;;;;;11.70;88.23;98241.78;5078383;27;45315;-83
2021/05/21 04:53:46;;;;;;;4.47;1.20;;;;;;;11.81;87.75;98241.47;5078840;27;45484;-83
2021/05/21 04:56:12;;;;;;;2.83;1.20;;;;;;;11.94;89.12;98246.34;5091969;27;45416;-82
2021/05/21 04:58:37;;;;;;;3.63;1.70;;;;;;;12.00;85.70;98247.53;5078584;27;45484;-82
2021/05/21 05:01:03;;;;;;;4.82;1.60;;;;;;;11.92;86.86;98238.50;5084303;27;45357;-83
2021/05/21 05:03:29;;;;;;;3.85;1.33;;;;;;;11.94;86.60;98227.69;5095242;27;45453;-83
2021/05/21 05:05:55;;;;;;;3.15;1.23;;;;;;;12.08;87.72;98231.56;5083793;27;45456;-84
2021/05/21 05:08:21;;;;;;;2.97;1.38;;;;;;;12.16;89.14;98222.72;5078412;27;45260;-83
2021/05/21 05:10:49;;;;;;;3.72;1.30;;;;;;;11.98;89.71;98213.03;5086079;27;45540;-85
2021/05/21 05:13:15;;;;;;;3.70;1.02;;;;;;;12.00;87.38;98211.06;5087370;27;45483;-83
2021/05/21 05:15:42;;;;;;;2.63;1.00;;;;;;;12.11;86.47;98224.06;5087607;27;45986;-83
2021/05/21 05:18:07;;;;;;;2.67;1.00;;;;;;;12.15;85.03;98215.72;5077452;27;45374;-79
2021/05/21 05:20:34;;;;;;;2.45;0.90;;;;;;;12.05;86.34;98210.56;5078542;27;45283;-79
2021/05/21 05:23:00;;;;;;;1.85;1.13;;;;;;;11.85;87.20;98186.03;5078017;27;45525;-78
2021/05/21 05:25:26;;;;;;;3.55;1.10;;;;;;;11.99;87.86;98171.22;5082963;27;46067;-79
2021/05/21 05:27:52;;;;;;;3.90;1.08;;;;;;;12.05;85.94;98163.41;5087231;27;45560;-80
2021/05/21 05:30:19;;;;;;;3.05;1.00;;;;;;;12.19;88.28;98169.91;5086112;27;45349;-80
2021/05/21 05:32:44;;;;;;;4.72;1.13;;;;;;;12.18;84.97;98188.72;5085154;27;45586;-78
2021/05/21 05:35:10;;;;;;;2.97;1.00;;;;;;;11.95;86.07;98181.38;5075723;27;46571;-81
2021/05/21 05:37:36;;;;;;;4.63;1.10;;;;;;;11.93;86.39;98176.22;5093401;27;45465;-80
2021/05/21 05:40:01;;;;;;;4.13;1.70;;;;;;;12.00;81.58;98171.09;5094843;27;45529;-81
2021/05/21 05:42:26;;;;;;;2.85;1.25;;;;;;;12.13;84.08;98167.91;5090697;27;46898;-81
2021/05/21 05:44:52;;;;;;;3.25;1.42;;;;;;;12.12;86.04;98150.25;5096150;27;45492;-80
2021/05/21 05:47:18;;;;;;;3.03;0.90;;;;;;;12.17;85.23;98136.41;5089074;27;45456;-81
2021/05/21 05:49:43;;;;;;;2.13;1.00;;;;;;;11.95;89.83;98144.91;5082030;27;45521;-80
2021/05/21 05:52:09;;;;;;;2.60;1.00;;;;;;;12.10;89.18;98138.94;5084735;27;45511;-80
2021/05/21 05:54:34;;;;;;;4.63;1.42;;;;;;;12.33;88.55;98147.03;5086591;27;45294;-79
2021/05/21 05:57:00;;;;;;;2.55;1.13;;;;;;;12.45;87.44;98144.03;5075698;28;45421;-79
2021/05/21 05:59:27;;;;;;;4.47;1.10;;;;;;;12.50;89.11;98152.38;5076055;28;45464;-79
2021/05/21 06:01:53;;;;;;;2.60;1.17;;;;;;;12.48;92.00;98149.84;5077347;28;45219;-79
2021/05/21 06:04:18;;;;;;;2.05;1.00;;;;;;;12.49;90.25;98146.19;5086851;27;47335;-80
2021/05/21 06:06:43;;;;;;;4.18;0.90;;;;;;;12.57;91.49;98142.66;5079457;27;45471;-79
2021/05/21 06:09:09;;;;;;;5.25;1.90;;;;;;;12.32;87.70;98160.56;5076742;27;45451;-81
2021/05/21 06:11:36;;;;;;;4.38;1.50;;;;;;;12.38;88.11;98160.72;5075553;27;45414;-81
2021/05/21 06:14:01;;;;;;;5.00;1.60;;;;;;;12.34;87.80;98145.22;5086550;27;45551;-80
2021/05/21 06:16:27;;;;;;;4.35;2.25;;;;;;;12.17;86.64;98149.75;5092706;27;45539;-79
2021/05/21 06:18:52;;;;;;;4.63;1.98;;;;;;;12.46;84.51;98151.03;5087155;27;45515;-79
2021/05/21 06:21:18;;;;;;;5.15;1.80;;;;;;;12.48;85.46;98157.03;5091586;27;45509;-79
2021/05/21 06:23:44;;;;;;;5.60;2.13;;;;;;;12.60;84.52;98157.47;5095635;27;48563;-80
2021/05/21 06:28:36;;;;;;;8.95;2.55;;;;;;;12.73;85.34;98173.78;5096986;27;45287;-79
2021/05/21 06:31:02;;;;;;;10.30;2.40;;;;;;;12.80;83.76;98174.75;5089763;27;45406;-79
2021/05/21 06:33:27;;;;;;;7.05;2.08;;;;;;;12.89;82.55;98182.75;5096816;27;45448;-79
2021/05/21 06:35:52;;;;;;;5.82;1.85;;;;;;;12.41;79.41;98170.22;5095575;27;45282;-80
2021/05/21 06:38:19;;;;;;;6.28;2.15;;;;;;;12.60;79.16;98153.00;5095538;27;45443;-79
2021/05/21 06:40:45;;;;;;;6.47;1.88;;;;;;;12.99;80.68;98156.69;5096788;27;45275;-79
2021/05/21 06:43:12;;;;;;;4.10;1.40;;;;;;;13.20;84.62;98139.22;5095233;27;47951;-79
2021/05/21 06:45:39;;;;;;;9.35;1.60;;;;;;;13.09;82.08;98132.44;5095518;27;45440;-79
2021/05/21 06:48:05;;;;;;;3.65;1.55;;;;;;;13.26;81.00;98138.53;5092937;27;45313;-79
2021/05/21 06:50:31;;;;;;;2.90;1.33;;;;;;;13.27;82.01;98140.19;5089313;27;45530;-80
2021/05/21 06:52:56;;;;;;;3.67;1.23;;;;;;;13.41;81.03;98133.28;5094883;27;45959;-79
2021/05/21 06:55:22;;;;;;;4.50;0.90;;;;;;;14.04;71.70;98137.66;5087714;27;45396;-80
2021/05/21 06:57:47;;;;;;;2.60;1.08;;;;;;;13.95;75.52;98140.41;5079950;27;45294;-80
2021/05/21 07:00:13;;;;;;;4.13;1.05;;;;;;;14.25;75.69;98135.09;5079885;27;45278;-80
2021/05/21 07:02:38;;;;;;;2.88;1.45;;;;;;;14.51;77.13;98151.75;5078513;28;47177;-80
2021/05/21 07:05:04;;;;;;;4.57;1.10;;;;;;;14.22;76.33;98140.81;5080512;27;45673;-81
2021/05/21 07:07:31;;;;;;;5.78;1.48;;;;;;;14.29;76.21;98133.72;5093654;27;45349;-81
2021/05/21 07:09:57;;;;;;;3.45;1.25;;;;;;;14.28;79.53;98134.75;5079645;27;45590;-81
2021/05/21 07:12:22;;;;;;;8.55;1.60;;;;;;;14.29;78.16;98122.22;5087682;27;45604;-81
2021/05/21 07:14:48;;;;;;;4.47;1.55;;;;;;;14.44;78.67;98107.00;5086990;27;45463;-81
2021/05/21 07:17:13;;;;;;;5.07;1.70;;;;;;;14.51;79.37;98104.41;5079757;27;45456;-82
2021/05/21 07:19:39;;;;;;;3.13;1.75;;;;;;;15.17;77.66;98098.25;5079597;27;45591;-82
2021/05/21 07:22:05;;;;;;;4.05;1.50;;;;;;;15.40;78.86;98101.78;5080448;27;45529;-82
2021/05/21 07:24:31;;;;;;;5.22;1.70;;;;;;;18.06;63.47;98112.41;5079287;27;45289;-84
2021/05/21 07:26:56;;;;;;;4.88;1.67;;;;;;;19.31;58.61;98117.06;5079505;27;45432;-86
2021/05/21 07:29:22;;;;;;;5.40;1.33;;;;;;;17.64;63.41;98125.22;5078323;27;45256;-81
2021/05/21 07:31:47;;;;;;;5.88;1.88;;;;;;;20.26;53.38;98123.47;5085974;27;45402;-83
2021/05/21 07:34:12;;;;;;;3.85;1.73;;;;;;;21.73;42.93;98120.06;5087237;27;45359;-81
2021/05/21 07:36:38;;;;;;;3.13;1.50;;;;;;;24.29;38.65;98120.34;5077814;27;45392;-82
2021/05/21 07:39:05;;;;;;;4.80;1.55;;;;;;;21.79;45.07;98118.31;5087793;27;45459;-80
2021/05/21 07:41:31;;;;;;;6.03;1.40;;;;;;;20.06;52.15;98110.97;5097449;27;45994;-79
2021/05/21 07:43:57;;;;;;;3.45;1.25;;;;;;;18.53;56.30;98112.34;5094942;27;45530;-78
2021/05/21 07:46:24;;;;;;;5.38;1.50;;;;;;;19.58;53.29;98096.16;5078937;27;45356;-79
2021/05/21 07:48:53;;;;;;;2.10;1.10;;;;;;;22.09;46.93;98098.44;5096931;27;45374;-79
2021/05/21 07:51:20;;;;;;;3.63;1.33;;;;;;;20.77;50.86;98101.75;5078715;27;45986;-78
2021/05/21 07:53:45;;;;;;;4.22;1.25;;;;;;;20.54;49.33;98100.53;5077577;27;46031;-79
2021/05/21 07:56:10;;;;;;;3.60;1.20;;;;;;;19.76;55.18;98098.09;5089226;27;45286;-79
2021/05/21 07:58:36;;;;;;;3.83;1.33;;;;;;;20.02;54.36;98092.72;5082286;27;45385;-79
2021/05/21 08:01:03;;;;;;;6.80;1.60;;;;;;;19.75;53.40;98091.03;5080050;27;45405;-79
2021/05/21 08:03:29;;;;;;;3.03;1.35;;;;;;;19.86;54.06;98077.88;5078683;27;45442;-80
2021/05/21 08:05:57;;;;;;;3.03;1.10;;;;;;;19.28;54.59;98066.28;5078292;27;45413;-79
2021/05/21 08:08:23;;;;;;;4.05;1.33;;;;;;;19.55;57.51;98058.84;5094911;27;45409;-78
2021/05/21 08:10:53;;;;;;;6.05;1.85;;;;;;;19.87;51.59;98053.41;5089215;27;46079;-80
2021/05/21 08:13:19;;;;;;;2.85;1.30;;;;;;;20.44;51.28;98046.22;5091595;27;45478;-79
2021/05/21 08:15:45;;;;;;;3.85;1.40;;;;;;;20.64;52.29;98040.59;5087022;27;45290;-80
2021/05/21 08:18:11;;;;;;;3.38;1.27;;;;;;;23.36;43.70;98027.38;5090625;27;45305;-80
2021/05/21 08:20:37;;;;;;;4.82;1.35;;;;;;;25.25;39.06;98016.88;5085801;27;45227;-79
2021/05/21 08:23:03;;;;;;;4.78;1.30;;;;;;;26.32;38.82;98009.81;5080646;27;45311;-78
2021/05/21 08:25:28;;;;;;;2.88;1.20;;;;;;;27.09;34.48;98004.66;5078472;27;45817;-78
2021/05/21 08:27:54;;;;;;;4.85;1.33;;;;;;;26.66;33.93;97995.78;5078664;27;45456;-80
2021/05/21 08:30:22;;;;;;;5.25;1.50;;;;;;;25.56;35.31;97993.53;5096083;27;45345;-80
2021/05/21 08:32:50;;;;;;;2.00;1.00;;;;;;;25.11;37.46;97994.72;5091385;27;45452;-80
2021/05/21 08:35:17;;;;;;;5.97;1.65;;;;;;;24.93;37.57;97994.00;5097092;27;45377;-79
2021/05/21 08:37:43;;;;;;;4.32;1.50;;;;;;;25.61;37.23;97988.13;5097350;27;45360;-80
2021/05/21 08:40:09;;;;;;;3.47;1.63;;;;;;;25.25;34.90;97973.38;5081234;27;46934;-78
2021/05/21 08:42:39;;;;;;;3.47;1.23;;;;;;;23.55;39.72;97976.44;5091011;27;45380;-79
2021/05/21 08:45:06;;;;;;;;;;;;;;;24.12;37.71;97969.13;5080359;27;45376;-78
2021/05/21 08:47:36;;;;;;;3.08;1.23;;;;;;;24.70;37.75;97963.28;5087684;27;45568;-79
2021/05/21 08:50:07;;;;;;;2.20;1.40;;;;;;;24.46;36.48;97951.88;5098116;27;46020;-78
2021/05/21 08:52:33;;;;;;;3.80;1.20;;;;;;;24.89;37.92;97954.81;5083810;27;46057;-78
2021/05/21 08:54:58;;;;;;;2.55;1.10;;;;;;;23.23;42.14;97957.16;5084377;27;45379;-79
2021/05/21 08:57:24;;;;;;;2.63;1.10;;;;;;;23.26;40.06;97964.84;5083423;27;45376;-81
2021/05/21 08:59:50;;;;;;;3.58;0.90;;;;;;;23.23;37.73;97971.53;5079810;27;45408;-84
2021/05/21 09:02:24;;;;;;;9.00;1.55;;;;;;;23.66;38.13;97954.88;5077854;27;45330;-83
2021/05/21 09:04:56;;;;;;;3.90;1.00;;;;;;;25.17;34.44;97966.47;5078361;27;45441;-84
2021/05/21 09:07:32;;;;;;;3.25;1.25;;;;;;;23.95;35.81;97969.16;5090114;27;45409;-83
2021/05/21 09:10:09;;;;;;;3.20;1.23;;;;;;;22.37;41.60;97975.88;5098017;27;46026;-87
2021/05/21 09:12:51;;;;;;;2.15;1.10;;;;;;;22.26;41.88;97960.47;5078751;27;45755;-84
2021/05/21 09:15:22;;;;;;;3.53;1.30;;;;;;;21.72;42.58;97975.03;5075516;27;45495;-84
2021/05/21 09:18:05;;;;;;;3.65;1.00;;;;;;;20.85;42.55;97972.59;5077149;27;45512;-84
2021/05/21 09:20:40;;;;;;;2.97;1.10;;;;;;;21.35;45.87;97978.72;5075944;27;47241;-86
2021/05/21 09:23:17;;;;;;;2.90;1.10;;;;;;;21.39;45.38;97992.59;5081795;27;45286;-86
2021/05/21 09:25:53;;;;;;;5.90;1.10;;;;;;;20.25;46.82;97984.94;5075759;27;45467;-85
2021/05/21 09:28:46;;;;;;;5.70;1.40;;;;;;;20.13;48.41;97981.34;5076220;28;45392;-83
2021/05/21 09:31:24;;;;;;;6.15;1.35;;;;;;;20.31;50.39;97996.72;5075504;27;48033;-87
2021/05/21 09:33:52;;;;;;;1.90;0.93;;;;;;;22.30;45.26;97991.44;5093162;27;45544;-86
2021/05/21 09:36:32;;;;;;;4.55;0.93;;;;;;;22.57;41.24;97993.66;5075951;28;45312;-85
2021/05/21 09:38:58;;;;;;;2.83;1.23;;;;;;;23.51;44.53;97982.59;5083660;27;45884;-83
2021/05/21 09:41:25;;;;;;;4.03;1.02;;;;;;;23.18;45.49;97966.84;5089910;27;48282;-85
2021/05/21 09:43:56;;;;;;;4.80;1.40;;;;;;;22.51;40.34;97968.34;5075731;28;45988;-85
2021/05/21 09:46:22;;;;;;;5.10;1.25;;;;;;;21.73;45.54;97973.97;5084868;27;45345;-86
2021/05/21 09:48:48;;;;;;;4.88;1.30;;;;;;;21.40;42.39;97978.84;5078923;27;45564;-85
2021/05/21 09:51:14;;;;;;;4.68;0.80;;;;;;;21.32;42.73;97972.94;5076955;27;45274;-86
2021/05/21 09:53:43;;;;;;;2.28;0.88;;;;;;;21.75;43.63;97981.84;5077219;27;45303;-85
2021/05/21 09:56:20;;;;;;;3.28;0.93;;;;;;;22.43;43.09;97984.94;5077300;27;45421;-85
2021/05/21 09:58:46;;;;;;;3.03;1.00;;;;;;;21.80;42.84;97990.91;5080703;27;45535;-85
2021/05/21 10:01:16;;;;;;;3.50;1.00;;;;;;;23.00;39.83;97976.03;5090433;27;47779;-82
2021/05/21 10:03:55;;;;;;;2.78;1.13;;;;;;;23.86;40.02;97966.03;5077008;27;45384;-81
2021/05/21 10:06:25;;;;;;;3.65;0.90;;;;;;;23.67;39.58;97961.94;5079154;27;45455;-83
2021/05/21 10:08:55;;;;;;;3.88;1.25;;;;;;;23.29;37.92;97946.16;5090834;27;45301;-83
2021/05/21 10:11:21;;;;;;;5.60;2.17;;;;;;;23.49;42.59;97947.56;5078046;27;45498;-84
2021/05/21 10:13:46;;;;;;;3.45;1.10;;;;;;;23.65;41.52;97951.31;5090164;27;45349;-82
2021/05/21 10:16:14;;;;;;;3.83;1.10;;;;;;;24.02;39.43;97956.25;5077232;27;45281;-80
2021/05/21 10:18:45;;;;;;;2.17;1.10;;;;;;;23.29;42.33;97931.78;5090940;27;45491;-81
2021/05/21 10:21:11;;;;;;;13.55;3.63;;;;;;;23.07;38.78;97923.53;5085028;27;45331;-82
2021/05/21 10:23:41;;;;;;;8.95;2.60;;;;;;;22.56;39.69;97916.16;5076760;27;45339;-80
2021/05/21 10:26:15;;;;;;;3.50;1.63;;;;;;;22.44;40.64;97898.00;5077100;27;45266;-81
2021/05/21 10:28:44;;;;;;;2.10;0.82;;;;;;;21.88;40.64;97892.28;5078645;27;45646;-82
2021/05/21 10:31:13;;;;;;;1.50;0.88;;;;;;;21.84;47.09;97889.25;5083157;27;47631;-80
2021/05/21 10:33:40;;;;;;;3.63;1.83;;;;;;;21.50;46.41;97893.59;5090754;27;45448;-80
2021/05/21 10:36:15;;;;;;;1.67;0.90;;;;;;;21.70;47.10;97887.84;5097032;27;45348;-79
2021/05/21 10:38:59;;;;;;;11.35;1.92;;;;;;;21.72;53.59;97891.97;5087260;27;45492;-80
2021/05/21 10:41:25;;;;;;;7.88;2.03;;;;;;;21.66;49.50;97887.50;5096544;27;46743;-82
2021/05/21 10:43:54;;;;;;;3.63;1.05;;;;;;;21.52;44.22;97878.75;5095018;27;45345;-82
2021/05/21 10:46:21;;;;;;;3.67;1.30;;;;;;;22.07;44.71;97881.28;5093737;27;45568;-79
2021/05/21 10:49:02;;;;;;;2.65;0.80;;;;;;;22.12;40.80;97881.41;5093227;27;45565;-87
2021/05/21 10:51:47;;;;;;;2.25;1.00;;;;;;;21.81;44.42;97884.31;5097063;27;47217;-84
2021/05/21 10:54:33;;;;;;;3.22;1.13;;;;;;;21.52;45.28;97892.28;5087301;27;45238;-82
2021/05/21 10:57:19;;;;;;;3.00;1.42;;;;;;;20.79;41.31;97883.53;5092906;27;45439;-81
2021/05/21 10:59:56;;;;;;;2.38;1.23;;;;;;;20.53;42.99;97863.91;5079622;27;45410;-83
2021/05/21 11:02:23;;;;;;;3.78;1.80;;;;;;;20.58;42.50;97861.34;5078547;27;48049;-82
2021/05/21 11:04:51;;;;;;;2.75;1.10;;;;;;;20.44;41.47;97849.09;5086694;27;45514;-84
2021/05/21 11:07:33;;;;;;;4.82;1.10;;;;;;;20.56;42.88;97863.47;5079695;27;45243;-84
2021/05/21 11:10:00;;;;;;;2.80;1.00;;;;;;;20.58;45.36;97865.94;5087269;27;45623;-84
2021/05/21 11:12:44;;;;;;;5.25;3.00;;;;;;;19.75;44.27;97853.66;5078037;27;47079;-85
2021/05/21 11:15:33;;;;;;;5.15;1.92;;;;;;;19.64;46.97;97855.25;5078231;28;45639;-85
2021/05/21 11:18:16;;;;;;;5.55;2.92;;;;;;;19.40;48.15;97863.16;5078430;27;45246;-85
2021/05/21 11:21:12;;;;;;;1.73;0.95;;;;;;;19.26;46.17;97872.44;5079327;27;45366;-84
2021/05/21 11:23:48;;;;;;;3.33;1.08;;;;;;;19.17;49.02;97865.66;5077985;27;47216;-84
2021/05/21 11:26:13;;;;;;;2.40;0.82;;;;;;;19.08;49.45;97870.53;5079581;27;45185;-84
2021/05/21 11:28:43;;;;;;;2.58;0.90;;;;;;;19.28;52.84;97867.63;5078383;27;45499;-85
2021/05/21 11:31:11;;;;;;;3.03;0.77;;;;;;;19.01;47.30;97854.41;5080779;27;45546;-85
2021/05/21 11:33:37;;;;;;;3.25;0.95;;;;;;;18.71;49.63;97854.19;5097839;27;46484;-80
2021/05/21 11:36:06;;;;;;;2.47;1.05;;;;;;;18.81;45.95;97833.81;5086026;27;45295;-87
2021/05/21 11:38:31;;;;;;;2.55;0.70;;;;;;;18.98;55.58;97840.53;5090838;27;45655;-83